sensor_id;sensor_type;location;lat;lon;timestamp;pressure;altitude;pressure_sealevel;temperature;humidity
33153;BME280;19509;43.862;26.176;2022-09-16T00:00:51;99794.72;;;21.44;56.56
33153;BME280;19509;43.862;26.176;2022-09-16T00:03:16;99794.19;;;21.42;56.38
33153;BME280;19509;43.862;26.176;2022-09-16T00:05:47;99793.41;;;21.42;56.56
33153;BME280;19509;43.862;26.176;2022-09-16T00:08:14;99801.19;;;21.35;56.71
33153;BME280;19509;43.862;26.176;2022-09-16T00:10:40;99808.03;;;21.32;56.64
33153;BME280;19509;43.862;26.176;2022-09-16T00:13:05;99801.91;;;21.40;56.49
33153;BME280;19509;43.862;26.176;2022-09-16T00:15:31;99810.28;;;21.30;56.77
33153;BME280;19509;43.862;26.176;2022-09-16T00:17:57;99791.00;;;21.21;58.24
33153;BME280;19509;43.862;26.176;2022-09-16T00:20:24;99799.91;;;21.13;58.80
33153;BME280;19509;43.862;26.176;2022-09-16T00:22:49;99793.34;;;20.95;59.66
33153;BME280;19509;43.862;26.176;2022-09-16T00:25:15;99801.09;;;20.88;59.77
33153;BME280;19509;43.862;26.176;2022-09-16T00:27:40;99784.00;;;20.83;59.98
33153;BME280;19509;43.862;26.176;2022-09-16T00:30:06;99795.22;;;20.81;59.44
33153;BME280;19509;43.862;26.176;2022-09-16T00:32:32;99787.75;;;20.68;59.82
33153;BME280;19509;43.862;26.176;2022-09-16T00:34:58;99785.25;;;20.71;59.76
33153;BME280;19509;43.862;26.176;2022-09-16T00:37:23;99777.34;;;20.70;60.11
33153;BME280;19509;43.862;26.176;2022-09-16T00:39:49;99784.75;;;20.69;59.80
33153;BME280;19509;43.862;26.176;2022-09-16T00:42:16;99779.56;;;20.68;59.75
33153;BME280;19509;43.862;26.176;2022-09-16T00:45:01;99783.31;;;20.72;59.35
33153;BME280;19509;43.862;26.176;2022-09-16T00:50:13;99779.22;;;20.88;58.13
33153;BME280;19509;43.862;26.176;2022-09-16T00:52:41;99781.09;;;20.93;58.07
33153;BME280;19509;43.862;26.176;2022-09-16T00:55:09;99783.50;;;20.94;57.97
33153;BME280;19509;43.862;26.176;2022-09-16T00:57:36;99789.09;;;20.89;58.13
33153;BME280;19509;43.862;26.176;2022-09-16T01:00:04;99786.13;;;20.86;58.00
33153;BME280;19509;43.862;26.176;2022-09-16T01:02:31;99786.41;;;20.84;57.65
33153;BME280;19509;43.862;26.176;2022-09-16T01:05:09;99798.97;;;20.85;57.71
33153;BME280;19509;43.862;26.176;2022-09-16T01:07:45;99792.63;;;20.90;57.65
33153;BME280;19509;43.862;26.176;2022-09-16T01:10:17;99789.72;;;21.00;57.24
33153;BME280;19509;43.862;26.176;2022-09-16T01:12:45;99791.34;;;21.01;57.27
33153;BME280;19509;43.862;26.176;2022-09-16T01:15:12;99785.44;;;20.94;58.07
33153;BME280;19509;43.862;26.176;2022-09-16T01:17:47;99781.97;;;20.88;58.14
33153;BME280;19509;43.862;26.176;2022-09-16T01:26:59;99795.63;;;20.55;59.49
33153;BME280;19509;43.862;26.176;2022-09-16T01:29:42;99795.41;;;20.47;59.67
33153;BME280;19509;43.862;26.176;2022-09-16T01:40:25;99802.16;;;20.54;59.37
33153;BME280;19509;43.862;26.176;2022-09-16T01:43:22;99805.34;;;20.62;58.79
33153;BME280;19509;43.862;26.176;2022-09-16T01:45:55;99808.53;;;20.69;58.39
33153;BME280;19509;43.862;26.176;2022-09-16T01:51:04;99803.34;;;20.86;57.44
33153;BME280;19509;43.862;26.176;2022-09-16T01:53:56;99805.91;;;20.96;56.84
33153;BME280;19509;43.862;26.176;2022-09-16T01:59:24;99818.25;;;21.13;56.56
33153;BME280;19509;43.862;26.176;2022-09-16T02:01:56;99811.06;;;21.17;56.24
33153;BME280;19509;43.862;26.176;2022-09-16T02:04:33;99815.38;;;21.04;56.72
33153;BME280;19509;43.862;26.176;2022-09-16T02:07:03;99824.47;;;20.99;57.13
33153;BME280;19509;43.862;26.176;2022-09-16T02:09:33;99819.22;;;21.03;57.25
33153;BME280;19509;43.862;26.176;2022-09-16T02:12:05;99815.16;;;21.00;57.19
33153;BME280;19509;43.862;26.176;2022-09-16T02:14:39;99813.81;;;20.98;56.81
33153;BME280;19509;43.862;26.176;2022-09-16T02:17:09;99825.34;;;20.95;56.96
33153;BME280;19509;43.862;26.176;2022-09-16T02:19:58;99822.59;;;20.95;56.67
33153;BME280;19509;43.862;26.176;2022-09-16T02:22:32;99819.06;;;20.94;56.76
33153;BME280;19509;43.862;26.176;2022-09-16T02:24:59;99818.56;;;20.92;56.37
33153;BME280;19509;43.862;26.176;2022-09-16T02:27:28;99807.53;;;20.97;56.38
33153;BME280;19509;43.862;26.176;2022-09-16T02:29:59;99811.38;;;20.96;56.55
33153;BME280;19509;43.862;26.176;2022-09-16T02:32:27;99818.31;;;20.89;56.79
33153;BME280;19509;43.862;26.176;2022-09-16T02:34:56;99829.63;;;20.82;57.21
33153;BME280;19509;43.862;26.176;2022-09-16T02:37:32;99823.16;;;20.78;57.41
33153;BME280;19509;43.862;26.176;2022-09-16T02:40:04;99829.28;;;20.70;57.82
33153;BME280;19509;43.862;26.176;2022-09-16T02:42:32;99841.41;;;20.64;58.06
33153;BME280;19509;43.862;26.176;2022-09-16T02:44:59;99838.44;;;20.60;58.15
33153;BME280;19509;43.862;26.176;2022-09-16T02:47:46;99835.94;;;20.64;57.58
33153;BME280;19509;43.862;26.176;2022-09-16T02:53:15;99836.53;;;20.61;57.79
33153;BME280;19509;43.862;26.176;2022-09-16T02:56:09;99838.75;;;20.59;58.09
33153;BME280;19509;43.862;26.176;2022-09-16T02:58:37;99851.09;;;20.56;57.71
33153;BME280;19509;43.862;26.176;2022-09-16T03:01:03;99846.75;;;20.50;57.62
33153;BME280;19509;43.862;26.176;2022-09-16T03:03:29;99847.59;;;20.50;57.51
33153;BME280;19509;43.862;26.176;2022-09-16T03:08:34;99847.47;;;20.61;57.35
33153;BME280;19509;43.862;26.176;2022-09-16T03:11:05;99847.47;;;20.61;57.20
33153;BME280;19509;43.862;26.176;2022-09-16T03:13:42;99850.56;;;20.54;56.91
33153;BME280;19509;43.862;26.176;2022-09-16T03:26:57;99856.06;;;20.49;57.75
33153;BME280;19509;43.862;26.176;2022-09-16T03:29:33;99840.69;;;20.34;58.18
33153;BME280;19509;43.862;26.176;2022-09-16T03:32:21;99841.63;;;20.24;58.93
33153;BME280;19509;43.862;26.176;2022-09-16T03:34:54;99828.28;;;19.99;59.51
33153;BME280;19509;43.862;26.176;2022-09-16T03:37:26;99829.53;;;19.88;59.77
33153;BME280;19509;43.862;26.176;2022-09-16T03:39:57;99831.31;;;19.97;59.18
33153;BME280;19509;43.862;26.176;2022-09-16T03:42:24;99825.22;;;20.05;58.22
33153;BME280;19509;43.862;26.176;2022-09-16T03:44:49;99818.63;;;20.06;57.87
33153;BME280;19509;43.862;26.176;2022-09-16T03:47:16;99821.19;;;20.22;57.65
33153;BME280;19509;43.862;26.176;2022-09-16T03:49:42;99827.22;;;20.19;58.35
33153;BME280;19509;43.862;26.176;2022-09-16T03:52:08;99832.25;;;20.12;58.95
33153;BME280;19509;43.862;26.176;2022-09-16T03:54:34;99829.56;;;20.06;58.05
33153;BME280;19509;43.862;26.176;2022-09-16T03:57:01;99824.84;;;20.12;57.97
33153;BME280;19509;43.862;26.176;2022-09-16T03:59:27;99830.69;;;20.24;57.15
33153;BME280;19509;43.862;26.176;2022-09-16T04:01:53;99838.03;;;20.29;56.71
33153;BME280;19509;43.862;26.176;2022-09-16T04:04:18;99837.38;;;20.37;56.55
33153;BME280;19509;43.862;26.176;2022-09-16T04:06:44;99842.69;;;20.47;56.10
33153;BME280;19509;43.862;26.176;2022-09-16T04:09:11;99844.63;;;20.47;56.32
33153;BME280;19509;43.862;26.176;2022-09-16T04:11:37;99846.66;;;20.60;55.96
33153;BME280;19509;43.862;26.176;2022-09-16T04:14:04;99857.06;;;20.58;55.94
33153;BME280;19509;43.862;26.176;2022-09-16T04:16:30;99849.59;;;20.64;55.52
33153;BME280;19509;43.862;26.176;2022-09-16T04:18:55;99843.78;;;20.70;55.57
33153;BME280;19509;43.862;26.176;2022-09-16T04:21:21;99851.91;;;20.75;55.36
33153;BME280;19509;43.862;26.176;2022-09-16T04:23:47;99846.13;;;20.77;55.21
33153;BME280;19509;43.862;26.176;2022-09-16T04:26:13;99859.13;;;20.85;54.92
33153;BME280;19509;43.862;26.176;2022-09-16T04:28:39;99861.81;;;20.90;54.87
33153;BME280;19509;43.862;26.176;2022-09-16T04:31:10;99869.53;;;21.02;54.13
33153;BME280;19509;43.862;26.176;2022-09-16T04:33:37;99870.22;;;21.13;53.61
33153;BME280;19509;43.862;26.176;2022-09-16T04:36:03;99871.97;;;21.41;52.31
33153;BME280;19509;43.862;26.176;2022-09-16T04:38:29;99866.13;;;21.62;52.04
33153;BME280;19509;43.862;26.176;2022-09-16T04:41:09;99874.38;;;21.89;50.63
33153;BME280;19509;43.862;26.176;2022-09-16T04:43:35;99860.22;;;22.15;48.79
33153;BME280;19509;43.862;26.176;2022-09-16T04:46:00;99883.50;;;22.67;47.18
33153;BME280;19509;43.862;26.176;2022-09-16T04:48:27;99891.19;;;22.93;46.73
33153;BME280;19509;43.862;26.176;2022-09-16T04:50:53;99889.69;;;23.09;46.46
33153;BME280;19509;43.862;26.176;2022-09-16T04:53:20;99881.28;;;23.28;45.59
33153;BME280;19509;43.862;26.176;2022-09-16T04:55:46;99877.72;;;23.50;45.17
33153;BME280;19509;43.862;26.176;2022-09-16T04:58:12;99878.28;;;23.61;44.50
33153;BME280;19509;43.862;26.176;2022-09-16T05:00:38;99885.00;;;23.77;44.43
33153;BME280;19509;43.862;26.176;2022-09-16T05:03:03;99880.72;;;23.94;43.69
33153;BME280;19509;43.862;26.176;2022-09-16T05:05:29;99872.53;;;24.02;43.95
33153;BME280;19509;43.862;26.176;2022-09-16T05:07:55;99873.50;;;24.06;44.28
33153;BME280;19509;43.862;26.176;2022-09-16T05:10:20;99877.59;;;24.18;44.09
33153;BME280;19509;43.862;26.176;2022-09-16T05:12:50;99880.84;;;24.28;43.75
33153;BME280;19509;43.862;26.176;2022-09-16T05:15:16;99870.69;;;24.38;43.70
33153;BME280;19509;43.862;26.176;2022-09-16T05:17:41;99882.22;;;24.48;43.87
33153;BME280;19509;43.862;26.176;2022-09-16T05:20:07;99879.34;;;24.62;43.76
33153;BME280;19509;43.862;26.176;2022-09-16T05:22:33;99878.06;;;24.68;42.91
33153;BME280;19509;43.862;26.176;2022-09-16T05:24:59;99882.59;;;24.64;43.39
33153;BME280;19509;43.862;26.176;2022-09-16T05:27:24;99875.97;;;24.74;42.95
33153;BME280;19509;43.862;26.176;2022-09-16T05:29:52;99883.25;;;24.78;43.42
33153;BME280;19509;43.862;26.176;2022-09-16T05:32:18;99887.94;;;24.78;43.99
33153;BME280;19509;43.862;26.176;2022-09-16T05:34:43;99891.34;;;24.84;43.97
33153;BME280;19509;43.862;26.176;2022-09-16T05:37:08;99897.19;;;24.91;43.02
33153;BME280;19509;43.862;26.176;2022-09-16T05:39:34;99899.94;;;24.91;42.59
33153;BME280;19509;43.862;26.176;2022-09-16T05:42:00;99898.00;;;24.91;42.85
33153;BME280;19509;43.862;26.176;2022-09-16T05:44:26;99900.41;;;24.93;42.53
33153;BME280;19509;43.862;26.176;2022-09-16T05:46:52;99909.03;;;25.00;43.41
33153;BME280;19509;43.862;26.176;2022-09-16T05:49:18;99903.50;;;25.00;43.42
33153;BME280;19509;43.862;26.176;2022-09-16T05:51:45;99909.00;;;25.09;42.58
33153;BME280;19509;43.862;26.176;2022-09-16T05:54:11;99905.13;;;25.01;42.92
33153;BME280;19509;43.862;26.176;2022-09-16T05:56:37;99913.38;;;24.92;43.46
33153;BME280;19509;43.862;26.176;2022-09-16T05:59:03;99915.97;;;24.97;43.99
33153;BME280;19509;43.862;26.176;2022-09-16T06:01:31;99917.44;;;25.12;43.56
33153;BME280;19509;43.862;26.176;2022-09-16T06:03:57;99906.91;;;25.06;43.97
33153;BME280;19509;43.862;26.176;2022-09-16T06:06:24;99923.47;;;25.14;44.01
33153;BME280;19509;43.862;26.176;2022-09-16T06:08:52;99927.66;;;25.12;44.07
33153;BME280;19509;43.862;26.176;2022-09-16T06:11:18;99920.34;;;24.98;44.45
33153;BME280;19509;43.862;26.176;2022-09-16T06:13:44;99925.19;;;24.84;44.65
33153;BME280;19509;43.862;26.176;2022-09-16T06:16:10;99928.72;;;24.76;44.89
33153;BME280;19509;43.862;26.176;2022-09-16T06:18:36;99926.97;;;24.80;45.18
33153;BME280;19509;43.862;26.176;2022-09-16T06:21:05;99935.25;;;24.97;45.48
33153;BME280;19509;43.862;26.176;2022-09-16T06:23:31;99937.19;;;25.06;45.43
33153;BME280;19509;43.862;26.176;2022-09-16T06:26:17;99937.50;;;25.04;44.79
33153;BME280;19509;43.862;26.176;2022-09-16T06:28:44;99948.03;;;25.02;45.31
33153;BME280;19509;43.862;26.176;2022-09-16T06:31:12;99939.91;;;24.88;45.63
33153;BME280;19509;43.862;26.176;2022-09-16T06:33:38;99941.19;;;24.82;45.92
33153;BME280;19509;43.862;26.176;2022-09-16T06:36:06;99938.59;;;24.86;45.90
33153;BME280;19509;43.862;26.176;2022-09-16T06:38:33;99931.50;;;24.85;45.64
33153;BME280;19509;43.862;26.176;2022-09-16T06:41:00;99931.34;;;24.98;45.49
33153;BME280;19509;43.862;26.176;2022-09-16T06:43:26;99929.56;;;24.94;45.87
33153;BME280;19509;43.862;26.176;2022-09-16T06:45:59;99927.75;;;24.89;45.86
33153;BME280;19509;43.862;26.176;2022-09-16T06:48:25;99924.84;;;24.86;45.46
33153;BME280;19509;43.862;26.176;2022-09-16T06:51:03;99922.91;;;24.86;45.89
33153;BME280;19509;43.862;26.176;2022-09-16T06:53:30;99928.44;;;24.95;45.92
33153;BME280;19509;43.862;26.176;2022-09-16T06:56:00;99923.09;;;24.90;45.81
33153;BME280;19509;43.862;26.176;2022-09-16T06:58:26;99920.00;;;24.91;46.30
33153;BME280;19509;43.862;26.176;2022-09-16T07:00:54;99916.44;;;24.91;46.02
33153;BME280;19509;43.862;26.176;2022-09-16T07:03:20;99924.38;;;24.92;46.13
33153;BME280;19509;43.862;26.176;2022-09-16T07:05:56;99933.13;;;24.94;46.21
33153;BME280;19509;43.862;26.176;2022-09-16T07:08:22;99929.09;;;25.09;46.16
33153;BME280;19509;43.862;26.176;2022-09-16T07:11:02;99927.66;;;25.20;46.48
33153;BME280;19509;43.862;26.176;2022-09-16T07:13:29;99941.09;;;25.39;45.88
33153;BME280;19509;43.862;26.176;2022-09-16T07:15:58;99934.44;;;25.40;45.78
33153;BME280;19509;43.862;26.176;2022-09-16T07:18:25;99945.78;;;25.47;45.05
33153;BME280;19509;43.862;26.176;2022-09-16T07:20:50;99947.38;;;25.57;45.76
33153;BME280;19509;43.862;26.176;2022-09-16T07:23:16;99958.22;;;25.71;45.09
33153;BME280;19509;43.862;26.176;2022-09-16T07:25:41;99958.72;;;25.64;44.48
33153;BME280;19509;43.862;26.176;2022-09-16T07:28:06;99960.84;;;25.59;44.20
33153;BME280;19509;43.862;26.176;2022-09-16T07:30:32;99952.72;;;25.71;44.71
33153;BME280;19509;43.862;26.176;2022-09-16T07:32:58;99946.88;;;25.72;44.07
33153;BME280;19509;43.862;26.176;2022-09-16T07:35:24;99959.56;;;25.82;43.84
33153;BME280;19509;43.862;26.176;2022-09-16T07:37:50;99959.06;;;25.71;43.99
33153;BME280;19509;43.862;26.176;2022-09-16T07:40:16;99958.88;;;25.77;44.43
33153;BME280;19509;43.862;26.176;2022-09-16T07:42:41;99963.75;;;25.80;44.15
33153;BME280;19509;43.862;26.176;2022-09-16T07:45:07;99964.38;;;25.94;43.83
33153;BME280;19509;43.862;26.176;2022-09-16T07:47:33;99962.69;;;26.19;44.21
33153;BME280;19509;43.862;26.176;2022-09-16T07:49:59;99965.59;;;26.23;44.06
33153;BME280;19509;43.862;26.176;2022-09-16T07:52:24;99968.41;;;26.52;43.08
33153;BME280;19509;43.862;26.176;2022-09-16T07:54:57;99982.44;;;26.68;42.55
33153;BME280;19509;43.862;26.176;2022-09-16T07:57:23;99975.47;;;26.71;41.97
33153;BME280;19509;43.862;26.176;2022-09-16T07:59:49;99965.16;;;26.80;42.22
33153;BME280;19509;43.862;26.176;2022-09-16T08:02:15;99974.03;;;26.94;41.96
33153;BME280;19509;43.862;26.176;2022-09-16T08:04:41;99965.94;;;27.10;39.67
33153;BME280;19509;43.862;26.176;2022-09-16T08:07:06;99974.19;;;27.19;40.85
33153;BME280;19509;43.862;26.176;2022-09-16T08:09:32;99976.97;;;27.19;39.26
33153;BME280;19509;43.862;26.176;2022-09-16T08:11:58;99969.19;;;27.12;39.26
33153;BME280;19509;43.862;26.176;2022-09-16T08:14:24;99963.41;;;27.26;39.77
33153;BME280;19509;43.862;26.176;2022-09-16T08:16:49;99950.75;;;27.25;38.97
33153;BME280;19509;43.862;26.176;2022-09-16T08:19:15;99950.84;;;27.49;38.65
33153;BME280;19509;43.862;26.176;2022-09-16T08:21:42;99945.22;;;27.58;37.27
33153;BME280;19509;43.862;26.176;2022-09-16T08:24:08;99951.84;;;27.66;37.40
33153;BME280;19509;43.862;26.176;2022-09-16T08:26:34;99945.59;;;27.90;37.02
33153;BME280;19509;43.862;26.176;2022-09-16T08:29:00;99951.97;;;28.02;36.83
33153;BME280;19509;43.862;26.176;2022-09-16T08:31:26;99938.81;;;28.12;35.95
33153;BME280;19509;43.862;26.176;2022-09-16T08:33:51;99939.91;;;28.19;36.37
33153;BME280;19509;43.862;26.176;2022-09-16T08:36:19;99939.53;;;28.21;36.43
33153;BME280;19509;43.862;26.176;2022-09-16T08:38:46;99948.28;;;28.11;36.52
33153;BME280;19509;43.862;26.176;2022-09-16T08:41:44;99944.84;;;28.14;35.54
33153;BME280;19509;43.862;26.176;2022-09-16T08:46:57;99933.41;;;28.15;34.71
33153;BME280;19509;43.862;26.176;2022-09-16T08:49:41;99945.22;;;28.37;34.51
33153;BME280;19509;43.862;26.176;2022-09-16T08:52:13;99940.38;;;28.46;34.73
33153;BME280;19509;43.862;26.176;2022-09-16T08:54:46;99950.53;;;28.42;34.42
33153;BME280;19509;43.862;26.176;2022-09-16T08:57:17;99937.38;;;28.39;34.83
33153;BME280;19509;43.862;26.176;2022-09-16T08:59:50;99932.53;;;28.60;34.23
33153;BME280;19509;43.862;26.176;2022-09-16T09:10:50;99934.38;;;28.81;34.38
33153;BME280;19509;43.862;26.176;2022-09-16T09:13:33;99925.47;;;28.87;33.71
33153;BME280;19509;43.862;26.176;2022-09-16T09:25:05;99918.06;;;29.04;33.83
33153;BME280;19509;43.862;26.176;2022-09-16T09:27:38;99913.44;;;29.08;33.02
33153;BME280;19509;43.862;26.176;2022-09-16T09:30:22;99920.31;;;29.14;33.10
33153;BME280;19509;43.862;26.176;2022-09-16T09:41:33;99899.41;;;29.44;33.75
33153;BME280;19509;43.862;26.176;2022-09-16T09:46:53;99898.25;;;29.74;32.41
33153;BME280;19509;43.862;26.176;2022-09-16T09:49:28;99904.25;;;29.91;32.37
33153;BME280;19509;43.862;26.176;2022-09-16T09:52:09;99896.56;;;30.01;32.72
33153;BME280;19509;43.862;26.176;2022-09-16T09:54:37;99905.63;;;30.13;32.29
33153;BME280;19509;43.862;26.176;2022-09-16T10:02:21;99918.88;;;30.87;31.59
33153;BME280;19509;43.862;26.176;2022-09-16T10:04:48;99920.13;;;30.90;31.78
33153;BME280;19509;43.862;26.176;2022-09-16T10:07:17;99910.63;;;30.91;31.49
33153;BME280;19509;43.862;26.176;2022-09-16T10:09:55;99916.75;;;30.80;31.19
33153;BME280;19509;43.862;26.176;2022-09-16T10:12:30;99930.19;;;30.62;31.84
33153;BME280;19509;43.862;26.176;2022-09-16T10:14:56;99915.28;;;30.71;32.44
33153;BME280;19509;43.862;26.176;2022-09-16T10:17:22;99915.59;;;31.01;31.96
33153;BME280;19509;43.862;26.176;2022-09-16T10:20:00;99907.72;;;31.22;31.46
33153;BME280;19509;43.862;26.176;2022-09-16T10:22:31;99916.84;;;31.23;31.05
33153;BME280;19509;43.862;26.176;2022-09-16T10:25:05;99915.66;;;31.04;31.06
33153;BME280;19509;43.862;26.176;2022-09-16T10:27:35;99903.59;;;30.97;31.35
33153;BME280;19509;43.862;26.176;2022-09-16T10:30:12;99901.94;;;31.12;31.39
33153;BME280;19509;43.862;26.176;2022-09-16T10:32:46;99897.13;;;31.08;31.07
33153;BME280;19509;43.862;26.176;2022-09-16T10:35:27;99899.00;;;31.04;31.81
33153;BME280;19509;43.862;26.176;2022-09-16T10:40:26;99916.66;;;31.12;30.86
33153;BME280;19509;43.862;26.176;2022-09-16T10:42:53;99910.03;;;31.01;32.13
33153;BME280;19509;43.862;26.176;2022-09-16T10:45:45;99900.91;;;30.81;32.03
33153;BME280;19509;43.862;26.176;2022-09-16T10:48:13;99902.72;;;30.57;32.03
33153;BME280;19509;43.862;26.176;2022-09-16T10:50:51;99904.19;;;30.35;31.97
33153;BME280;19509;43.862;26.176;2022-09-16T10:55:57;99906.41;;;30.46;31.99
33153;BME280;19509;43.862;26.176;2022-09-16T10:58:23;99911.78;;;30.38;32.50
33153;BME280;19509;43.862;26.176;2022-09-16T11:01:14;99921.66;;;30.20;32.70
33153;BME280;19509;43.862;26.176;2022-09-16T11:09:10;99895.75;;;30.48;32.45
33153;BME280;19509;43.862;26.176;2022-09-16T11:42:16;99871.59;;;31.22;31.08
33153;BME280;19509;43.862;26.176;2022-09-16T11:44:50;99861.09;;;31.54;30.02
33153;BME280;19509;43.862;26.176;2022-09-16T11:47:23;99858.09;;;31.63;29.99
33153;BME280;19509;43.862;26.176;2022-09-16T11:53:05;99859.34;;;31.27;30.11
33153;BME280;19509;43.862;26.176;2022-09-16T12:01:24;99848.94;;;31.63;29.42
33153;BME280;19509;43.862;26.176;2022-09-16T12:04:12;99844.78;;;31.76;30.35
33153;BME280;19509;43.862;26.176;2022-09-16T12:07:14;99837.66;;;31.32;30.09
33153;BME280;19509;43.862;26.176;2022-09-16T12:09:56;99837.06;;;31.04;30.28
33153;BME280;19509;43.862;26.176;2022-09-16T12:12:45;99832.31;;;31.04;30.48
33153;BME280;19509;43.862;26.176;2022-09-16T12:15:19;99835.25;;;30.92;30.88
33153;BME280;19509;43.862;26.176;2022-09-16T12:17:56;99834.88;;;30.74;31.14
33153;BME280;19509;43.862;26.176;2022-09-16T12:20:32;99833.41;;;30.80;31.64
33153;BME280;19509;43.862;26.176;2022-09-16T12:23:14;99839.84;;;30.49;30.72
33153;BME280;19509;43.862;26.176;2022-09-16T12:25:46;99829.56;;;30.50;31.57
33153;BME280;19509;43.862;26.176;2022-09-16T12:28:19;99828.59;;;30.42;31.40
33153;BME280;19509;43.862;26.176;2022-09-16T12:31:02;99824.22;;;30.60;31.56
33153;BME280;19509;43.862;26.176;2022-09-16T12:33:39;99826.81;;;30.69;30.86
33153;BME280;19509;43.862;26.176;2022-09-16T12:36:10;99824.06;;;30.53;31.56
33153;BME280;19509;43.862;26.176;2022-09-16T12:38:37;99826.19;;;30.40;31.70
33153;BME280;19509;43.862;26.176;2022-09-16T12:41:15;99837.09;;;30.49;31.05
33153;BME280;19509;43.862;26.176;2022-09-16T13:02:45;99825.09;;;29.62;33.58
33153;BME280;19509;43.862;26.176;2022-09-16T13:05:20;99826.06;;;29.70;33.29
33153;BME280;19509;43.862;26.176;2022-09-16T13:07:53;99832.69;;;29.65;34.49
33153;BME280;19509;43.862;26.176;2022-09-16T13:10:27;99829.38;;;29.60;34.06
33153;BME280;19509;43.862;26.176;2022-09-16T13:12:57;99835.34;;;29.62;33.87
33153;BME280;19509;43.862;26.176;2022-09-16T13:15:27;99840.28;;;29.68;33.84
33153;BME280;19509;43.862;26.176;2022-09-16T13:17:54;99840.25;;;29.53;34.24
33153;BME280;19509;43.862;26.176;2022-09-16T13:20:47;99834.22;;;29.63;34.33
33153;BME280;19509;43.862;26.176;2022-09-16T13:23:23;99836.28;;;29.66;33.84
33153;BME280;19509;43.862;26.176;2022-09-16T13:26:01;99841.94;;;29.57;34.18
33153;BME280;19509;43.862;26.176;2022-09-16T13:33:43;99837.81;;;29.07;34.83
33153;BME280;19509;43.862;26.176;2022-09-16T13:38:44;99849.97;;;28.90;35.46
33153;BME280;19509;43.862;26.176;2022-09-16T13:41:12;99853.13;;;28.76;36.07
33153;BME280;19509;43.862;26.176;2022-09-16T13:46:11;99872.56;;;28.52;36.46
33153;BME280;19509;43.862;26.176;2022-09-16T13:51:26;99864.97;;;28.37;37.75
33153;BME280;19509;43.862;26.176;2022-09-16T13:53:54;99859.66;;;28.19;38.83
33153;BME280;19509;43.862;26.176;2022-09-16T13:56:54;99861.25;;;27.83;39.77
33153;BME280;19509;43.862;26.176;2022-09-16T13:59:48;99847.19;;;27.76;41.03
33153;BME280;19509;43.862;26.176;2022-09-16T14:02:28;99861.19;;;27.71;42.18
33153;BME280;19509;43.862;26.176;2022-09-16T14:08:25;99863.47;;;27.57;43.62
33153;BME280;19509;43.862;26.176;2022-09-16T14:10:55;99858.44;;;27.59;43.67
33153;BME280;19509;43.862;26.176;2022-09-16T14:13:23;99848.97;;;27.60;43.30
33153;BME280;19509;43.862;26.176;2022-09-16T14:15:51;99843.31;;;27.56;42.48
33153;BME280;19509;43.862;26.176;2022-09-16T14:18:22;99842.75;;;27.63;42.02
33153;BME280;19509;43.862;26.176;2022-09-16T14:21:01;99833.31;;;27.64;40.70
33153;BME280;19509;43.862;26.176;2022-09-16T14:23:28;99830.34;;;27.69;40.90
33153;BME280;19509;43.862;26.176;2022-09-16T14:25:54;99821.50;;;27.76;41.23
33153;BME280;19509;43.862;26.176;2022-09-16T14:28:22;99829.00;;;27.88;41.19
33153;BME280;19509;43.862;26.176;2022-09-16T14:30:57;99824.84;;;27.81;41.70
33153;BME280;19509;43.862;26.176;2022-09-16T14:33:28;99830.38;;;27.81;41.57
33153;BME280;19509;43.862;26.176;2022-09-16T14:35:55;99833.38;;;27.76;42.10
33153;BME280;19509;43.862;26.176;2022-09-16T14:38:29;99824.69;;;27.66;41.35
33153;BME280;19509;43.862;26.176;2022-09-16T14:40:56;99820.75;;;27.54;41.62
33153;BME280;19509;43.862;26.176;2022-09-16T14:43:21;99818.81;;;27.55;41.47
33153;BME280;19509;43.862;26.176;2022-09-16T14:45:51;99818.34;;;27.53;42.26
33153;BME280;19509;43.862;26.176;2022-09-16T14:48:19;99821.69;;;27.58;41.93
33153;BME280;19509;43.862;26.176;2022-09-16T14:50:48;99812.25;;;27.59;42.16
33153;BME280;19509;43.862;26.176;2022-09-16T14:55:55;99804.28;;;27.46;41.86
33153;BME280;19509;43.862;26.176;2022-09-16T14:58:22;99810.41;;;27.51;42.03
33153;BME280;19509;43.862;26.176;2022-09-16T15:00:51;99809.44;;;27.35;42.21
33153;BME280;19509;43.862;26.176;2022-09-16T15:03:41;99811.25;;;27.31;42.33
33153;BME280;19509;43.862;26.176;2022-09-16T15:06:13;99809.53;;;27.26;42.25
33153;BME280;19509;43.862;26.176;2022-09-16T15:08:45;99791.78;;;27.15;42.36
33153;BME280;19509;43.862;26.176;2022-09-16T15:11:15;99812.44;;;27.09;42.45
33153;BME280;19509;43.862;26.176;2022-09-16T15:13:43;99808.00;;;27.17;42.38
33153;BME280;19509;43.862;26.176;2022-09-16T15:16:11;99809.31;;;27.10;42.79
33153;BME280;19509;43.862;26.176;2022-09-16T15:18:49;99810.16;;;27.11;42.62
33153;BME280;19509;43.862;26.176;2022-09-16T15:21:32;99811.91;;;27.16;42.88
33153;BME280;19509;43.862;26.176;2022-09-16T15:24:00;99809.06;;;27.03;42.94
33153;BME280;19509;43.862;26.176;2022-09-16T15:29:04;99808.22;;;26.91;43.21
33153;BME280;19509;43.862;26.176;2022-09-16T15:31:36;99811.72;;;26.79;43.70
33153;BME280;19509;43.862;26.176;2022-09-16T15:34:23;99807.56;;;26.73;44.73
33153;BME280;19509;43.862;26.176;2022-09-16T15:36:50;99810.94;;;26.57;45.32
33153;BME280;19509;43.862;26.176;2022-09-16T15:47:37;99809.13;;;26.32;46.24
33153;BME280;19509;43.862;26.176;2022-09-16T15:50:13;99794.75;;;26.26;45.85
33153;BME280;19509;43.862;26.176;2022-09-16T15:53:01;99798.84;;;26.20;46.26
33153;BME280;19509;43.862;26.176;2022-09-16T15:55:42;99798.84;;;26.20;45.86
33153;BME280;19509;43.862;26.176;2022-09-16T16:00:58;99789.38;;;26.00;47.27
33153;BME280;19509;43.862;26.176;2022-09-16T16:03:25;99807.59;;;25.92;46.99
33153;BME280;19509;43.862;26.176;2022-09-16T16:05:52;99785.06;;;25.90;47.50